Time;durP1;ratioP1;P1;durP2;ratioP2;P2;SDS_P1;SDS_P2;PMS_P1;PMS_P2;Temp;Humidity;BMP_temperature;BMP_pressure;BME280_temperature;BME280_humidity;BME280_pressure;Samples;Min_cycle;Max_cycle;Signal;HPM_P1;HPM_P2
2022/09/12 00:02:00;;;;;;;;;;;;;;;15.86;69.08;101592.25;5073011;28;19917;-76
2022/09/12 00:04:27;;;;;;;;;;;;;;;15.84;68.82;101581.63;5072826;28;19908;-77
2022/09/12 00:06:52;;;;;;;;;;;;;;;15.85;68.99;101583.34;5073173;28;19920;-76
2022/09/12 00:09:17;;;;;;;;;;;;;;;15.83;69.03;101573.69;5105460;28;20006;-77
2022/09/12 00:11:44;;;;;;;;;;;;;;;15.82;69.20;101574.66;5073386;28;20034;-77
2022/09/12 00:14:10;;;;;;;;;;;;;;;15.79;69.10;101575.72;5075684;28;20336;-76
2022/09/12 00:16:36;;;;;;;;;;;;;;;15.77;69.04;101569.63;5075556;28;20386;-76
2022/09/12 00:19:02;;;;;;;;;;;;;;;15.75;69.22;101568.88;5090802;28;19923;-77
2022/09/12 00:21:28;;;;;;;;;;;;;;;15.71;69.32;101569.22;5072297;28;19959;-77
2022/09/12 00:23:55;;;;;;;;;;;;;;;15.66;69.41;101561.47;5075784;28;20401;-77
2022/09/12 00:26:21;;;;;;;;;;;;;;;15.63;69.27;101567.91;5072739;28;19912;-75
2022/09/12 00:28:46;;;;;;;;;;;;;;;15.61;69.03;101566.31;5073110;28;19973;-77
2022/09/12 00:31:15;;;;;;;;;;;;;;;15.59;69.66;101570.97;5073157;28;19923;-77
2022/09/12 00:33:41;;;;;;;;;;;;;;;15.55;69.42;101561.41;5072133;28;20359;-76
2022/09/12 00:36:08;;;;;;;;;;;;;;;15.53;69.18;101564.22;5070619;28;20003;-76
2022/09/12 00:38:37;;;;;;;;;;;;;;;15.51;69.63;101552.72;5072786;28;20377;-77
2022/09/12 00:41:06;;;;;;;;;;;;;;;15.50;69.48;101556.38;5070986;28;19963;-76
2022/09/12 00:43:42;;;;;;;;;;;;;;;15.47;69.19;101551.25;5075164;28;20329;-76
2022/09/12 00:46:26;;;;;;;;;;;;;;;15.42;69.47;101559.63;5071741;28;20290;-76
2022/09/12 00:48:55;;;;;;;;;;;;;;;15.38;69.79;101552.78;5072008;28;20031;-76
2022/09/12 00:51:21;;;;;;;;;;;;;;;15.31;69.93;101550.63;5091649;28;20408;-77
2022/09/12 00:53:48;;;;;;;;;;;;;;;15.28;69.99;101557.06;5076885;28;19920;-77
2022/09/12 00:56:16;;;;;;;;;;;;;;;15.25;69.79;101551.06;5053028;28;19920;-77
2022/09/12 00:58:49;;;;;;;;;;;;;;;15.26;69.75;101552.78;5054257;28;20351;-77
2022/09/12 01:01:15;;;;;;;;;;;;;;;15.21;70.27;101539.72;5068351;28;19912;-77
2022/09/12 01:03:40;;;;;;;;;;;;;;;15.16;69.91;101539.19;5064322;28;19908;-77
2022/09/12 01:06:17;;;;;;;;;;;;;;;15.14;70.09;101541.97;5071721;28;19913;-77
2022/09/12 01:08:43;;;;;;;;;;;;;;;15.14;69.96;101531.25;5071536;28;19965;-77
2022/09/12 01:11:13;;;;;;;;;;;;;;;15.12;69.95;101526.97;5071447;28;19920;-77
2022/09/12 01:13:38;;;;;;;;;;;;;;;15.10;70.06;101535.13;5071380;28;19938;-77
2022/09/12 01:16:05;;;;;;;;;;;;;;;15.05;70.19;101526.53;5075184;28;20375;-76
2022/09/12 01:18:39;;;;;;;;;;;;;;;15.06;70.20;101524.72;5071489;28;19908;-77
2022/09/12 01:21:07;;;;;;;;;;;;;;;15.06;70.32;101522.91;5103343;28;20325;-77
2022/09/12 01:23:42;;;;;;;;;;;;;;;15.04;70.39;101524.84;5104511;28;20010;-77
2022/09/12 01:26:17;;;;;;;;;;;;;;;15.01;70.13;101526.88;5061317;28;19939;-77
2022/09/12 01:28:45;;;;;;;;;;;;;;;14.96;71.78;101503.09;5072171;28;20353;-77
2022/09/12 01:31:49;;;;;;;;;;;;;;;14.88;70.61;101514.38;5071373;28;20371;-77
2022/09/12 01:34:16;;;;;;;;;;;;;;;14.85;70.69;101514.56;4993694;28;19952;-77
2022/09/12 01:36:42;;;;;;;;;;;;;;;14.86;70.82;101515.44;4990556;28;19921;-77
2022/09/12 01:39:08;;;;;;;;;;;;;;;14.82;71.29;101517.44;5038921;28;19927;-77
2022/09/12 01:41:50;;;;;;;;;;;;;;;14.78;70.86;101510.59;5071806;28;19942;-77
2022/09/12 01:44:15;;;;;;;;;;;;;;;14.79;70.79;101514.97;5074296;28;19912;-77
2022/09/12 01:47:21;;;;;;;;;;;;;;;14.79;70.96;101519.50;5077323;28;20007;-77
2022/09/12 01:49:56;;;;;;;;;;;;;;;14.78;71.15;101518.63;5000270;28;20003;-76
2022/09/12 01:52:27;;;;;;;;;;;;;;;14.77;71.08;101511.59;5013326;28;19909;-77
2022/09/12 01:54:55;;;;;;;;;;;;;;;14.72;71.37;101511.88;5053744;28;19982;-76
2022/09/12 01:57:28;;;;;;;;;;;;;;;14.69;71.37;101495.19;5072173;28;19939;-77
2022/09/12 01:59:57;;;;;;;;;;;;;;;14.70;71.13;101500.41;5071991;28;20389;-77
2022/09/12 02:02:29;;;;;;;;;;;;;;;14.72;71.09;101497.66;5053904;28;19919;-77
2022/09/12 02:05:01;;;;;;;;;;;;;;;14.69;71.48;101490.69;5070415;28;20372;-77
2022/09/12 02:07:30;;;;;;;;;;;;;;;14.70;71.21;101487.03;5071536;28;20003;-77
2022/09/12 02:10:06;;;;;;;;;;;;;;;14.69;71.29;101482.66;5071281;28;20281;-76
2022/09/12 02:12:38;;;;;;;;;;;;;;;14.70;71.52;101479.00;5070717;28;19912;-76
2022/09/12 02:15:06;;;;;;;;;;;;;;;14.69;71.08;101484.47;5071609;28;20356;-77
2022/09/12 02:17:37;;;;;;;;;;;;;;;14.68;71.61;101483.63;5088664;28;19912;-77
2022/09/12 02:20:23;;;;;;;;;;;;;;;14.63;71.45;101479.56;5102638;28;19916;-77
2022/09/12 02:22:50;;;;;;;;;;;;;;;14.59;71.68;101478.91;5077603;28;19919;-77
2022/09/12 02:25:17;;;;;;;;;;;;;;;14.58;71.52;101479.00;5072235;28;19908;-77
2022/09/12 02:27:49;;;;;;;;;;;;;;;14.57;71.84;101480.84;5064204;28;19919;-77
2022/09/12 02:30:18;;;;;;;;;;;;;;;14.57;71.65;101485.34;5068717;28;20032;-77
2022/09/12 02:32:56;;;;;;;;;;;;;;;14.54;71.31;101489.09;5076791;28;19912;-77
2022/09/12 02:35:27;;;;;;;;;;;;;;;14.55;71.74;101488.09;5075339;28;19955;-77
2022/09/12 02:37:55;;;;;;;;;;;;;;;14.53;71.82;101490.06;5074979;28;20015;-76
2022/09/12 02:40:21;;;;;;;;;;;;;;;14.49;71.63;101485.81;5074960;28;19916;-77
2022/09/12 02:42:47;;;;;;;;;;;;;;;14.47;71.67;101485.06;5107892;28;19908;-77
2022/09/12 02:45:12;;;;;;;;;;;;;;;14.46;71.81;101486.03;5077834;28;20045;-77
2022/09/12 02:47:45;;;;;;;;;;;;;;;14.44;72.40;101479.94;5107039;28;19919;-77
2022/09/12 02:50:10;;;;;;;;;;;;;;;14.39;72.84;101474.06;5072926;28;20294;-77
2022/09/12 02:52:36;;;;;;;;;;;;;;;14.35;72.29;101473.38;5081519;28;19919;-77
2022/09/12 02:55:03;;;;;;;;;;;;;;;14.35;72.38;101468.03;5082144;28;19912;-77
2022/09/12 02:57:29;;;;;;;;;;;;;;;14.33;72.49;101464.63;5073473;28;19912;-77
2022/09/12 02:59:55;;;;;;;;;;;;;;;14.31;72.40;101467.41;5073742;28;20006;-77
2022/09/12 03:02:23;;;;;;;;;;;;;;;14.31;72.62;101464.72;5075031;28;19916;-77
2022/09/12 03:05:12;;;;;;;;;;;;;;;14.33;72.52;101464.63;5088389;28;19912;-77
2022/09/12 03:07:56;;;;;;;;;;;;;;;14.33;72.54;101464.63;5051967;28;19916;-77
2022/09/12 03:10:21;;;;;;;;;;;;;;;14.29;72.57;101457.75;5068886;28;19912;-77
2022/09/12 03:12:59;;;;;;;;;;;;;;;14.26;72.31;101453.47;5055087;28;19939;-76
2022/09/12 03:15:28;;;;;;;;;;;;;;;14.25;72.48;101459.78;5072409;28;20358;-77
2022/09/12 03:18:12;;;;;;;;;;;;;;;14.25;72.37;101459.78;5105666;28;19999;-76
2022/09/12 03:20:52;;;;;;;;;;;;;;;14.26;72.40;101453.47;5088271;28;20406;-77
2022/09/12 03:23:20;;;;;;;;;;;;;;;14.24;72.67;101451.88;5082936;28;19911;-76
2022/09/12 03:25:50;;;;;;;;;;;;;;;14.23;72.45;101448.34;5076185;28;19943;-77
2022/09/12 03:28:17;;;;;;;;;;;;;;;14.21;72.53;101446.75;5070979;28;20291;-77
2022/09/12 03:30:44;;;;;;;;;;;;;;;14.19;72.50;101446.00;5070548;28;19919;-77
2022/09/12 03:33:10;;;;;;;;;;;;;;;14.18;72.54;101445.13;5079662;28;19918;-77
2022/09/12 03:35:35;;;;;;;;;;;;;;;14.19;72.78;101443.31;5069104;28;20002;-77
2022/09/12 03:38:01;;;;;;;;;;;;;;;14.04;72.88;101423.81;5073012;28;20350;-77
2022/09/12 03:40:26;;;;;;;;;;;;;;;14.18;72.81;101455.84;5072728;28;20019;-77
2022/09/12 03:42:53;;;;;;;;;;;;;;;14.17;72.73;101446.09;5073139;28;20298;-77
2022/09/12 03:45:19;;;;;;;;;;;;;;;14.17;73.07;101455.94;5106328;28;19912;-77
2022/09/12 03:47:44;;;;;;;;;;;;;;;14.16;73.10;101448.88;5074096;28;19965;-77
2022/09/12 03:50:10;;;;;;;;;;;;;;;14.13;73.06;101452.63;5074572;28;19918;-77
2022/09/12 03:52:35;;;;;;;;;;;;;;;14.12;72.91;101445.56;5073956;28;19916;-77
2022/09/12 03:55:00;;;;;;;;;;;;;;;14.13;73.13;101441.06;5072977;28;20313;-77
2022/09/12 03:57:25;;;;;;;;;;;;;;;14.06;73.26;101441.47;5106218;28;19915;-77
2022/09/12 03:59:51;;;;;;;;;;;;;;;14.03;73.71;101431.00;5074014;28;19912;-77
2022/09/12 04:02:16;;;;;;;;;;;;;;;13.99;73.54;101432.16;5072928;28;19963;-77
2022/09/12 04:04:42;;;;;;;;;;;;;;;13.99;73.68;101433.97;5074747;28;19912;-77
2022/09/12 04:07:08;;;;;;;;;;;;;;;14.00;73.72;101430.31;5079822;28;20487;-77
2022/09/12 04:09:33;;;;;;;;;;;;;;;14.01;73.84;101427.56;5093751;28;19951;-77
2022/09/12 04:12:00;;;;;;;;;;;;;;;14.00;73.86;101417.84;5082332;28;20000;-77
2022/09/12 04:14:26;;;;;;;;;;;;;;;14.01;73.86;101426.72;5064863;28;19927;-77
2022/09/12 04:16:51;;;;;;;;;;;;;;;14.03;74.01;101424.75;5075957;28;19916;-77
2022/09/12 04:19:17;;;;;;;;;;;;;;;14.02;74.16;101423.06;5072579;28;19912;-77
2022/09/12 04:21:42;;;;;;;;;;;;;;;14.03;73.53;101424.75;5057687;28;19934;-77
2022/09/12 04:24:07;;;;;;;;;;;;;;;14.03;74.15;101414.94;5106774;28;19966;-77
2022/09/12 04:26:33;;;;;;;;;;;;;;;14.03;74.14;101416.75;5072654;28;20371;-77
2022/09/12 04:28:59;;;;;;;;;;;;;;;14.01;74.21;101419.53;5065678;28;19912;-77
2022/09/12 04:31:29;;;;;;;;;;;;;;;14.00;74.17;101412.50;5057394;28;19939;-77
2022/09/12 04:33:55;;;;;;;;;;;;;;;14.02;74.83;101415.88;5075603;28;19912;-77
2022/09/12 04:36:21;;;;;;;;;;;;;;;14.03;75.69;101411.38;5057466;28;19923;-77
2022/09/12 04:38:47;;;;;;;;;;;;;;;13.99;75.47;101416.09;5073231;28;20412;-77
2022/09/12 04:41:14;;;;;;;;;;;;;;;13.99;75.20;101408.06;5072044;28;19920;-78
2022/09/12 04:43:42;;;;;;;;;;;;;;;14.01;74.61;101402.63;5083229;28;20407;-77
2022/09/12 04:46:08;;;;;;;;;;;;;;;14.02;75.27;101402.50;5088331;28;20460;-77
2022/09/12 04:48:34;;;;;;;;;;;;;;;14.04;75.06;101399.75;5078787;28;19919;-78
2022/09/12 04:51:06;;;;;;;;;;;;;;;14.07;75.03;101405.75;5071505;28;19920;-77
2022/09/12 04:53:32;;;;;;;;;;;;;;;14.09;75.53;101402.97;5075564;28;19912;-77
2022/09/12 04:56:00;;;;;;;;;;;;;;;14.09;75.38;101408.31;5073139;28;19912;-78
2022/09/12 04:58:26;;;;;;;;;;;;;;;14.09;75.31;101398.47;5072897;28;19908;-78
2022/09/12 05:00:51;;;;;;;;;;;;;;;14.11;75.79;101410.88;5069139;28;19920;-77
2022/09/12 05:03:17;;;;;;;;;;;;;;;14.08;75.46;101404.75;5071472;28;19950;-77
2022/09/12 05:05:42;;;;;;;;;;;;;;;14.07;75.46;101408.41;5071314;28;20278;-77
2022/09/12 05:08:10;;;;;;;;;;;;;;;14.08;75.86;101403.91;5071174;28;19909;-77
2022/09/12 05:10:36;;;;;;;;;;;;;;;14.08;75.91;101418.13;5073881;28;20381;-77
2022/09/12 05:13:01;;;;;;;;;;;;;;;14.08;76.15;101411.94;5074663;28;19939;-77
2022/09/12 05:15:26;;;;;;;;;;;;;;;14.06;76.16;101412.06;5066904;28;20013;-77
2022/09/12 05:17:51;;;;;;;;;;;;;;;14.07;76.18;101415.59;5092193;28;20389;-77
2022/09/12 05:20:18;;;;;;;;;;;;;;;14.06;76.19;101417.41;5103358;28;19916;-77
2022/09/12 05:22:43;;;;;;;;;;;;;;;14.05;76.27;101407.66;5078816;28;19912;-77
2022/09/12 05:25:09;;;;;;;;;;;;;;;14.09;76.17;101416.34;5075961;28;19913;-78
2022/09/12 05:27:34;;;;;;;;;;;;;;;14.09;76.23;101414.53;5074463;28;19919;-77
2022/09/12 05:30:00;;;;;;;;;;;;;;;14.10;76.28;101415.38;5073304;28;19942;-78
2022/09/12 05:32:29;;;;;;;;;;;;;;;14.11;76.63;101413.56;5079139;28;19962;-77
2022/09/12 05:34:54;;;;;;;;;;;;;;;14.11;76.48;101411.72;5087221;28;19912;-77
2022/09/12 05:37:22;;;;;;;;;;;;;;;14.12;76.16;101410.78;5071390;28;19938;-77
2022/09/12 05:39:47;;;;;;;;;;;;;;;14.12;76.16;101413.47;5073546;28;20355;-77
2022/09/12 05:42:13;;;;;;;;;;;;;;;14.14;76.25;101411.50;5071546;28;19916;-77
2022/09/12 05:44:38;;;;;;;;;;;;;;;14.15;76.24;101413.25;5070778;28;19912;-77
2022/09/12 05:47:04;;;;;;;;;;;;;;;14.17;76.39;101413.13;5071804;28;20331;-77
2022/09/12 05:49:29;;;;;;;;;;;;;;;14.17;76.38;101416.66;5079380;28;19913;-77
2022/09/12 05:51:55;;;;;;;;;;;;;;;14.19;76.32;101416.56;5083566;28;19919;-77
2022/09/12 05:54:21;;;;;;;;;;;;;;;14.19;76.74;101419.22;5081001;28;20007;-77
2022/09/12 05:56:47;;;;;;;;;;;;;;;14.19;76.87;101427.25;5069170;28;20084;-77
2022/09/12 05:59:14;;;;;;;;;;;;;;;14.19;76.80;101424.59;5072590;28;19920;-77
2022/09/12 06:01:40;;;;;;;;;;;;;;;14.20;76.89;101428.97;5074289;28;19923;-77
2022/09/12 06:04:06;;;;;;;;;;;;;;;14.21;77.03;101433.38;5074752;28;19912;-77
2022/09/12 06:06:34;;;;;;;;;;;;;;;14.22;76.84;101438.59;5073854;28;20217;-77
2022/09/12 06:09:00;;;;;;;;;;;;;;;14.23;76.91;101434.94;5076067;28;19919;-77
2022/09/12 06:11:27;;;;;;;;;;;;;;;14.28;77.47;101438.19;5086866;28;19918;-78
2022/09/12 06:13:52;;;;;;;;;;;;;;;14.28;77.62;101440.84;5079689;28;19920;-78
2022/09/12 06:16:19;;;;;;;;;;;;;;;14.29;77.45;101439.03;5078301;28;19916;-77
2022/09/12 06:18:48;;;;;;;;;;;;;;;14.27;77.25;101431.13;5076098;28;19926;-77
2022/09/12 06:21:14;;;;;;;;;;;;;;;14.28;77.84;101432.81;5080311;28;20350;-77
2022/09/12 06:23:39;;;;;;;;;;;;;;;14.28;77.69;101429.28;5084058;28;19913;-77
2022/09/12 06:26:05;;;;;;;;;;;;;;;14.27;79.30;101427.59;5075188;28;20378;-77
2022/09/12 06:28:31;;;;;;;;;;;;;;;14.26;78.70;101428.53;5077123;28;19918;-77
2022/09/12 06:31:01;;;;;;;;;;;;;;;14.27;79.28;101422.25;5077197;28;19971;-77
2022/09/12 06:33:26;;;;;;;;;;;;;;;14.28;78.64;101423.94;5088268;28;19965;-77
2022/09/12 06:35:51;;;;;;;;;;;;;;;14.30;77.98;101430.06;5079452;28;19916;-77
2022/09/12 06:38:17;;;;;;;;;;;;;;;14.33;78.97;101429.84;5093193;28;19912;-77
2022/09/12 06:40:43;;;;;;;;;;;;;;;14.36;80.92;101426.09;5075828;28;19944;-77
2022/09/12 06:43:09;;;;;;;;;;;;;;;14.36;78.26;101428.78;5080652;28;19908;-77
2022/09/12 06:45:35;;;;;;;;;;;;;;;14.42;81.90;101431.03;5076315;28;19912;-77
2022/09/12 06:48:04;;;;;;;;;;;;;;;14.46;80.91;101428.00;5072114;28;19920;-77
2022/09/12 06:50:30;;;;;;;;;;;;;;;14.49;80.12;101426.94;5072231;28;19990;-77
2022/09/12 06:52:55;;;;;;;;;;;;;;;14.56;82.14;101411.31;5074672;28;20431;-77
2022/09/12 06:55:23;;;;;;;;;;;;;;;14.59;81.35;101429.84;5069100;28;19967;-77
2022/09/12 06:57:48;;;;;;;;;;;;;;;14.49;80.72;101398.34;5078513;28;19969;-77
2022/09/12 07:00:14;;;;;;;;;;;;;;;14.70;81.92;101420.09;5091453;28;20002;-77
2022/09/12 07:02:39;;;;;;;;;;;;;;;14.70;80.55;101424.59;5107951;28;19912;-77
2022/09/12 07:05:04;;;;;;;;;;;;;;;14.73;79.46;101421.69;5107858;28;19912;-77
2022/09/12 07:07:33;;;;;;;;;;;;;;;14.74;80.14;101424.28;5074959;28;20004;-76
2022/09/12 07:09:58;;;;;;;;;;;;;;;14.74;81.44;101426.97;5085362;28;20003;-77
2022/09/12 07:12:23;;;;;;;;;;;;;;;14.77;79.81;101425.88;5074926;28;20006;-77
2022/09/12 07:14:48;;;;;;;;;;;;;;;14.79;81.41;101425.75;5074656;28;19924;-77
2022/09/12 07:17:14;;;;;;;;;;;;;;;14.81;78.67;101426.50;5075419;28;20302;-77
2022/09/12 07:19:40;;;;;;;;;;;;;;;14.86;80.14;101422.53;5074948;28;19908;-77
2022/09/12 07:22:05;;;;;;;;;;;;;;;14.92;80.64;101418.56;5075620;28;19916;-77
2022/09/12 07:24:30;;;;;;;;;;;;;;;14.94;81.84;101416.63;5074134;28;19913;-77
2022/09/12 07:26:56;;;;;;;;;;;;;;;15.01;82.26;101417.06;5073922;28;20276;-77
2022/09/12 07:29:21;;;;;;;;;;;;;;;15.08;81.78;101411.13;5073452;28;19908;-77
2022/09/12 07:31:48;;;;;;;;;;;;;;;15.16;82.59;101415.94;5069196;28;19993;-76
2022/09/12 07:34:14;;;;;;;;;;;;;;;15.27;82.32;101417.81;5097732;28;19908;-77
2022/09/12 07:36:39;;;;;;;;;;;;;;;15.35;80.76;101415.41;5105333;28;20428;-77
2022/09/12 07:39:04;;;;;;;;;;;;;;;15.42;80.64;101414.00;5074163;28;19908;-77
2022/09/12 07:41:33;;;;;;;;;;;;;;;15.45;80.89;101414.63;5074410;28;20374;-77
2022/09/12 07:43:59;;;;;;;;;;;;;;;15.53;80.92;101414.06;5073860;28;19912;-77
2022/09/12 07:46:25;;;;;;;;;;;;;;;15.64;81.15;101419.44;5106063;28;20042;-77
2022/09/12 07:48:51;;;;;;;;;;;;;;;15.75;81.01;101420.50;5074008;28;19905;-77
2022/09/12 07:51:17;;;;;;;;;;;;;;;15.85;80.57;101426.88;5074314;28;19916;-77
2022/09/12 07:53:45;;;;;;;;;;;;;;;15.89;81.31;101421.19;5063933;28;19912;-77
2022/09/12 07:56:11;;;;;;;;;;;;;;;15.97;81.28;101427.75;5076510;28;19912;-76
2022/09/12 07:58:40;;;;;;;;;;;;;;;16.08;80.61;101425.97;5079892;28;20386;-77
2022/09/12 08:01:12;;;;;;;;;;;;;;;16.22;81.37;101430.28;5066411;28;19920;-77
2022/09/12 08:03:40;;;;;;;;;;;;;;;16.36;80.56;101421.16;5073626;28;19912;-77
2022/09/12 08:06:10;;;;;;;;;;;;;;;16.49;80.92;101416.53;5066071;28;19938;-77
2022/09/12 08:08:36;;;;;;;;;;;;;;;16.67;81.24;101421.41;5079773;28;19912;-78
2022/09/12 08:11:04;;;;;;;;;;;;;;;16.82;79.71;101416.69;5073735;28;20275;-77
2022/09/12 08:13:30;;;;;;;;;;;;;;;16.98;80.38;101425.22;5074163;28;19993;-77
2022/09/12 08:15:56;;;;;;;;;;;;;;;17.18;79.19;101423.59;5072489;28;19944;-77
2022/09/12 08:18:22;;;;;;;;;;;;;;;17.33;79.33;101418.81;5104172;28;19916;-77
2022/09/12 08:20:47;;;;;;;;;;;;;;;17.50;78.75;101431.72;5073025;28;20432;-77
2022/09/12 08:23:12;;;;;;;;;;;;;;;17.61;78.83;101428.97;5076529;28;19908;-77
2022/09/12 08:25:40;;;;;;;;;;;;;;;17.74;78.71;101433.34;5072669;28;20350;-77
2022/09/12 08:28:05;;;;;;;;;;;;;;;17.88;77.68;101436.59;5084666;28;19919;-77
2022/09/12 08:30:33;;;;;;;;;;;;;;;18.05;77.88;101435.16;5105242;28;19908;-77
2022/09/12 08:32:58;;;;;;;;;;;;;;;18.21;77.60;101437.41;5073498;28;19944;-77
2022/09/12 08:35:24;;;;;;;;;;;;;;;18.35;77.59;101434.38;5078304;28;19959;-77
2022/09/12 08:37:49;;;;;;;;;;;;;;;18.53;77.27;101441.81;5072114;28;19915;-77
2022/09/12 08:40:15;;;;;;;;;;;;;;;18.72;76.94;101441.06;5071480;28;20339;-77
2022/09/12 08:42:48;;;;;;;;;;;;;;;18.87;75.60;101433.50;5072534;28;19914;-77
2022/09/12 08:45:21;;;;;;;;;;;;;;;19.05;75.50;101435.38;5104425;28;19915;-77
2022/09/12 08:47:50;;;;;;;;;;;;;;;19.30;75.23;101441.28;5070817;28;19916;-77
2022/09/12 08:50:17;;;;;;;;;;;;;;;19.50;74.94;101439.44;5105283;28;19999;-77
2022/09/12 08:52:50;;;;;;;;;;;;;;;19.66;74.26;101434.41;5069742;28;19959;-77
2022/09/12 08:55:36;;;;;;;;;;;;;;;19.83;73.97;101434.69;5074269;28;19912;-77
2022/09/12 08:58:21;;;;;;;;;;;;;;;20.01;72.25;101422.16;5056875;28;19908;-77
2022/09/12 09:00:52;;;;;;;;;;;;;;;20.12;72.32;101426.56;5072034;28;20442;-78
2022/09/12 09:03:21;;;;;;;;;;;;;;;20.20;72.23;101416.72;5071223;28;19912;-77
2022/09/12 09:05:47;;;;;;;;;;;;;;;20.34;71.74;101418.09;5072381;28;19924;-77
2022/09/12 09:08:19;;;;;;;;;;;;;;;20.53;72.01;101419.06;5072197;28;20438;-77
2022/09/12 09:11:15;;;;;;;;;;;;;;;20.70;70.87;101417.44;5071500;28;19908;-76
2022/09/12 09:16:41;;;;;;;;;;;;;;;20.91;69.94;101414.50;5092788;28;19965;-77
2022/09/12 09:19:24;;;;;;;;;;;;;;;21.04;68.58;101412.31;5092617;28;19930;-77
2022/09/12 09:21:53;;;;;;;;;;;;;;;21.15;68.54;101409.41;5092267;28;20465;-77
2022/09/12 09:24:21;;;;;;;;;;;;;;;21.31;68.42;101412.25;5086054;28;19908;-77
2022/09/12 09:26:50;;;;;;;;;;;;;;;21.50;68.56;101415.84;5072665;28;19908;-78
2022/09/12 09:29:21;;;;;;;;;;;;;;;21.77;66.21;101417.66;5088067;28;19930;-78
2022/09/12 09:31:48;;;;;;;;;;;;;;;21.93;65.50;101412.34;5072372;28;20370;-77
2022/09/12 09:34:19;;;;;;;;;;;;;;;21.97;65.42;101411.06;5071526;28;19908;-77
2022/09/12 09:37:11;;;;;;;;;;;;;;;22.08;65.57;101400.97;5104527;28;19913;-77
2022/09/12 09:39:37;;;;;;;;;;;;;;;22.20;63.75;101410.56;5067731;28;19913;-77
2022/09/12 09:42:02;;;;;;;;;;;;;;;;;;5067504;28;20386;-78
2022/09/12 09:44:28;;;;;;;;;;;;;;;22.36;61.81;101407.13;5072530;28;20390;-78
2022/09/12 09:46:54;;;;;;;;;;;;;;;22.38;63.31;101400.53;5088137;28;19994;-78
2022/09/12 09:49:21;;;;;;;;;;;;;;;22.59;62.43;101391.13;5091309;28;19908;-77
2022/09/12 09:51:46;;;;;;;;;;;;;;;22.76;62.47;101392.06;5090920;28;19951;-77
2022/09/12 09:54:21;;;;;;;;;;;;;;;22.84;59.85;101390.22;5092559;28;20377;-77
2022/09/12 09:56:47;;;;;;;;;;;;;;;22.90;62.21;101386.00;5090076;28;19930;-77
2022/09/12 09:59:16;;;;;;;;;;;;;;;23.06;60.64;101379.81;5092639;28;20373;-78
2022/09/12 10:01:50;;;;;;;;;;;;;;;23.25;58.29;101376.81;5090940;28;19912;-77
2022/09/12 10:04:17;;;;;;;;;;;;;;;23.38;59.09;101375.47;5092384;28;19931;-77
2022/09/12 10:06:42;;;;;;;;;;;;;;;23.47;59.58;101372.59;5090144;28;19931;-77
2022/09/12 10:09:13;;;;;;;;;;;;;;;23.68;60.29;101360.38;5092050;28;19908;-77
2022/09/12 10:11:41;;;;;;;;;;;;;;;23.79;57.00;101371.78;5073956;28;19939;-77
2022/09/12 10:14:28;;;;;;;;;;;;;;;23.85;55.24;101369.41;5071655;28;19921;-76
2022/09/12 10:16:53;;;;;;;;;;;;;;;23.89;56.80;101363.47;5085886;28;19955;-82
2022/09/12 10:19:23;;;;;;;;;;;;;;;23.93;57.52;101355.81;5079793;28;19967;-77
2022/09/12 10:21:53;;;;;;;;;;;;;;;24.06;56.18;101356.16;5068874;28;20310;-77
2022/09/12 10:24:26;;;;;;;;;;;;;;;24.12;55.91;101349.16;5072021;28;19938;-77
2022/09/12 10:26:55;;;;;;;;;;;;;;;24.03;54.20;101348.31;5071205;28;19935;-78
2022/09/12 10:29:25;;;;;;;;;;;;;;;23.99;55.55;101341.53;5073966;28;19963;-78
2022/09/12 10:31:53;;;;;;;;;;;;;;;24.18;58.00;101337.59;5078078;28;19900;-78
2022/09/12 10:34:24;;;;;;;;;;;;;;;24.36;57.08;101335.50;5097383;28;19927;-78
2022/09/12 10:36:52;;;;;;;;;;;;;;;24.56;56.49;101337.81;5097175;28;19900;-77
2022/09/12 10:39:18;;;;;;;;;;;;;;;24.75;55.07;101333.84;5097481;28;19975;-77
2022/09/12 10:41:44;;;;;;;;;;;;;;;24.90;56.08;101341.06;5079659;28;19920;-77
2022/09/12 10:44:17;;;;;;;;;;;;;;;25.02;54.30;101336.06;5073829;28;20389;-77
2022/09/12 10:46:43;;;;;;;;;;;;;;;25.24;54.15;101330.84;5073209;28;19912;-77
2022/09/12 10:49:28;;;;;;;;;;;;;;;25.43;54.46;101329.50;5075325;28;19908;-77
2022/09/12 10:51:54;;;;;;;;;;;;;;;25.70;54.68;101312.56;5091319;28;20389;-77
2022/09/12 10:54:23;;;;;;;;;;;;;;;25.93;52.10;101308.97;5095841;28;19908;-77
2022/09/12 10:56:52;;;;;;;;;;;;;;;26.02;49.26;101316.03;5095666;28;19991;-77
2022/09/12 10:59:20;;;;;;;;;;;;;;;26.09;49.90;101307.94;5095750;28;19908;-77
2022/09/12 11:01:52;;;;;;;;;;;;;;;26.11;47.43;101305.88;5075088;28;19916;-77
2022/09/12 11:04:23;;;;;;;;;;;;;;;26.19;51.14;101303.91;5075132;28;19916;-76
2022/09/12 11:07:07;;;;;;;;;;;;;;;26.46;51.26;101296.94;5090142;28;20291;-77
2022/09/12 11:09:32;;;;;;;;;;;;;;;26.85;49.48;101294.91;5090675;28;20367;-77
2022/09/12 11:12:07;;;;;;;;;;;;;;;27.25;45.25;101287.16;5078957;28;19919;-77
2022/09/12 11:14:53;;;;;;;;;;;;;;;27.56;49.98;101286.78;5073417;28;19943;-77
2022/09/12 11:17:21;;;;;;;;;;;;;;;27.81;44.48;101296.25;5107325;28;19912;-77
2022/09/12 11:20:05;;;;;;;;;;;;;;;28.11;42.46;101297.94;5076170;28;19908;-77
2022/09/12 11:22:48;;;;;;;;;;;;;;;28.58;46.76;101299.03;5074151;28;19917;-77
2022/09/12 11:25:29;;;;;;;;;;;;;;;29.32;44.86;101293.53;5074786;28;19908;-77
2022/09/12 11:28:13;;;;;;;;;;;;;;;29.86;46.26;101294.41;5107234;28;19908;-77
2022/09/12 11:30:50;;;;;;;;;;;;;;;30.29;43.39;101280.16;5073327;28;19908;-77
2022/09/12 11:33:51;;;;;;;;;;;;;;;30.60;41.44;101287.66;5073348;28;19912;-77
2022/09/12 11:36:37;;;;;;;;;;;;;;;30.95;42.22;101274.38;5052034;28;19913;-77
2022/09/12 11:39:13;;;;;;;;;;;;;;;31.23;39.34;101276.72;5074842;28;19912;-77
2022/09/12 11:41:49;;;;;;;;;;;;;;;31.62;41.33;101277.50;5093255;28;19916;-77
2022/09/12 11:44:20;;;;;;;;;;;;;;;32.07;37.27;101281.94;5094634;28;19946;-77
2022/09/12 11:46:46;;;;;;;;;;;;;;;32.63;31.70;101293.78;5094675;28;19994;-77
2022/09/12 11:49:12;;;;;;;;;;;;;;;32.85;33.87;101283.06;5092343;28;20119;-77
2022/09/12 11:51:58;;;;;;;;;;;;;;;32.93;31.05;101280.81;5106324;28;20369;-77
2022/09/12 11:54:33;;;;;;;;;;;;;;;33.23;31.52;101288.25;5073424;28;20332;-77
2022/09/12 11:57:21;;;;;;;;;;;;;;;33.51;34.30;101283.97;5088021;28;19963;-77
2022/09/12 11:59:51;;;;;;;;;;;;;;;33.95;31.88;101284.50;5073390;28;19912;-77
2022/09/12 12:02:27;;;;;;;;;;;;;;;34.26;32.81;101281.31;5092894;28;20044;-77
2022/09/12 12:05:11;;;;;;;;;;;;;;;34.47;31.34;101279.81;5094387;28;20458;-77
2022/09/12 12:07:40;;;;;;;;;;;;;;;34.72;33.10;101271.22;5092285;28;19953;-77
2022/09/12 12:10:09;;;;;;;;;;;;;;;35.14;34.19;101264.53;5091036;28;20281;-77
2022/09/12 12:12:34;;;;;;;;;;;;;;;35.59;27.62;101267.25;5073284;28;19917;-77
2022/09/12 12:15:00;;;;;;;;;;;;;;;35.74;27.25;101271.31;5058842;28;19976;-77
2022/09/12 12:17:26;;;;;;;;;;;;;;;35.66;29.23;101259.59;5092683;28;19912;-76
2022/09/12 12:20:04;;;;;;;;;;;;;;;35.59;29.32;101263.63;5085922;28;19912;-77
2022/09/12 12:22:31;;;;;;;;;;;;;;;36.02;28.28;101264.81;5072570;28;20332;-77
2022/09/12 12:25:21;;;;;;;;;;;;;;;36.29;28.79;101265.72;5072252;28;19958;-77
2022/09/12 12:27:48;;;;;;;;;;;;;;;36.17;27.63;101260.31;5072311;28;20363;-77
2022/09/12 12:30:29;;;;;;;;;;;;;;;36.02;27.12;101257.31;5073752;28;19908;-77
2022/09/12 12:33:09;;;;;;;;;;;;;;;36.26;31.98;101248.78;5073863;28;19909;-77
2022/09/12 12:35:34;;;;;;;;;;;;;;;36.75;27.64;101249.66;5106041;28;19908;-76
2022/09/12 12:38:00;;;;;;;;;;;;;;;36.56;27.01;101246.41;5072814;28;19919;-77
2022/09/12 12:40:27;;;;;;;;;;;;;;;36.20;28.38;101247.06;5072072;28;19916;-77
2022/09/12 12:42:55;;;;;;;;;;;;;;;36.15;27.15;101237.59;5072223;28;19908;-76
2022/09/12 12:45:26;;;;;;;;;;;;;;;36.48;29.01;101248.78;5093532;28;19907;-77
2022/09/12 12:48:08;;;;;;;;;;;;;;;37.04;24.97;101246.63;5092086;28;20366;-77
2022/09/12 12:50:33;;;;;;;;;;;;;;;37.20;24.94;101236.47;5092139;28;20435;-77
2022/09/12 12:53:02;;;;;;;;;;;;;;;37.36;26.90;101229.97;5092709;28;19908;-77